^^
Station Historical Data
Daily Summary for March 4, 2017 Units:  English    Metric   Both
« Previous Day
Next Day »
Daily Weekly Monthly Yearly Custom
  High: Low: Average:
Temperature: 33.8 °F 15.4 °F 24.4 °F
Dew Point: 12.9 °F 1.3 °F 7.5 °F
Humidity: 68 % 33 % 49 %
Wind Speed: 18.6 mph 0.0 mph 7.1 mph
Wind Gust: 26.5 mph - -
Wind:- - West
Pressure: 30.69 in 30.51 in -
Precipitation: 0.00 in    
Historical Graphs
 
 
Tabular Data for March 4, 2017
Time Temperature Dew Point Pressure Wind Wind Speed Wind Gust Humidity Rainfall Rate (Hourly) solar Conditions
00:03 23.4 °F 11.5 °F 30.51 in WNW 11.3 mph 15.0 mph 60 % 0.00 in 0.0 W/m2 FEW
00:08 23.4 °F 11.2 °F 30.51 in West 8.5 mph 12.0 mph 59 % 0.00 in 0.0 W/m2 FEW
00:13 23.4 °F 11.2 °F 30.51 in West 4.9 mph 13.8 mph 59 % 0.00 in 0.0 W/m2 FEW
00:18 23.4 °F 11.2 °F 30.51 in WSW 7.1 mph 11.5 mph 59 % 0.00 in 0.0 W/m2 FEW
00:23 23.3 °F 11.4 °F 30.51 in WNW 3.4 mph 9.2 mph 60 % 0.00 in 0.0 W/m2 FEW
00:28 23.1 °F 11.3 °F 30.51 in West 4.9 mph 10.4 mph 60 % 0.00 in 0.0 W/m2 FEW
00:33 23.1 °F 11.6 °F 30.51 in West 4.5 mph 9.2 mph 61 % 0.00 in 0.0 W/m2 FEW
00:38 23.0 °F 11.5 °F 30.52 in West 3.5 mph 6.9 mph 61 % 0.00 in 0.0 W/m2 FEW
00:43 22.9 °F 11.4 °F 30.52 in West 6.4 mph 9.2 mph 61 % 0.00 in 0.0 W/m2 FEW
00:48 22.8 °F 11.3 °F 30.52 in West 1.7 mph 4.0 mph 61 % 0.00 in 0.0 W/m2 FEW
00:53 22.8 °F 11.3 °F 30.52 in West 3.3 mph 10.4 mph 61 % 0.00 in 0.0 W/m2 FEW
00:58 22.8 °F 11.0 °F 30.52 in WNW 8.3 mph 11.5 mph 60 % 0.00 in 0.0 W/m2 FEW
01:03 22.9 °F 10.7 °F 30.52 in WNW 2.6 mph 5.0 mph 59 % 0.00 in 0.0 W/m2 FEW
01:08 22.9 °F 10.7 °F 30.52 in WNW 4.3 mph 5.8 mph 59 % 0.00 in 0.0 W/m2 FEW
01:13 22.8 °F 10.6 °F 30.52 in WNW 5.0 mph 9.2 mph 59 % 0.00 in 0.0 W/m2 FEW
01:18 22.7 °F 10.5 °F 30.52 in West 2.0 mph 3.5 mph 59 % 0.00 in 0.0 W/m2 FEW
01:23 22.7 °F 10.5 °F 30.52 in WSW 3.4 mph 8.0 mph 59 % 0.00 in 0.0 W/m2 FEW
01:28 22.7 °F 10.5 °F 30.52 in WNW 4.7 mph 8.1 mph 59 % 0.00 in 0.0 W/m2 FEW
01:33 22.7 °F 10.1 °F 30.52 in West 7.0 mph 10.4 mph 58 % 0.00 in 0.0 W/m2 FEW
01:38 22.7 °F 10.1 °F 30.53 in WNW 6.9 mph 13.8 mph 58 % 0.00 in 0.0 W/m2 FEW
01:43 22.6 °F 10.0 °F 30.53 in WNW 3.2 mph 8.1 mph 58 % 0.00 in 0.0 W/m2 FEW
01:48 22.6 °F 10.0 °F 30.53 in West 4.5 mph 10.4 mph 58 % 0.00 in 0.0 W/m2 FEW
01:53 22.6 °F 10.0 °F 30.53 in West 4.9 mph 7.0 mph 58 % 0.00 in 0.0 W/m2 FEW
01:58 22.7 °F 10.1 °F 30.54 in WNW 5.4 mph 11.5 mph 58 % 0.00 in 0.0 W/m2 FEW
02:03 22.8 °F 9.8 °F 30.54 in WNW 6.3 mph 11.5 mph 57 % 0.00 in 0.0 W/m2 FEW
02:08 22.8 °F 10.2 °F 30.54 in West 1.8 mph 6.9 mph 58 % 0.00 in 0.0 W/m2 FEW
02:13 22.8 °F 10.6 °F 30.53 in NW 4.8 mph 11.5 mph 59 % 0.00 in 0.0 W/m2 FEW
02:18 22.8 °F 10.2 °F 30.53 in NW 6.5 mph 16.0 mph 58 % 0.00 in 0.0 W/m2 FEW
02:23 22.7 °F 10.1 °F 30.53 in WNW 5.2 mph 7.0 mph 58 % 0.00 in 0.0 W/m2 FEW
02:28 22.5 °F 9.9 °F 30.53 in WNW 8.0 mph 10.0 mph 58 % 0.00 in 0.0 W/m2 FEW
02:33 22.4 °F 9.4 °F 30.52 in West 3.9 mph 8.1 mph 57 % 0.00 in 0.0 W/m2 FEW
02:38 22.3 °F 9.7 °F 30.52 in West 5.5 mph 12.0 mph 58 % 0.00 in 0.0 W/m2 FEW
02:43 22.3 °F 9.4 °F 30.52 in WNW 5.8 mph 9.2 mph 57 % 0.00 in 0.0 W/m2 FEW
02:48 22.2 °F 9.3 °F 30.52 in WNW 4.9 mph 6.9 mph 57 % 0.00 in 0.0 W/m2 FEW
02:53 22.0 °F 9.1 °F 30.52 in West 4.0 mph 8.1 mph 57 % 0.00 in 0.0 W/m2 FEW
02:58 21.9 °F 8.6 °F 30.52 in WNW 3.8 mph 8.1 mph 56 % 0.00 in 0.0 W/m2 FEW
03:03 21.8 °F 8.5 °F 30.52 in West 5.3 mph 9.2 mph 56 % 0.00 in 0.0 W/m2 FEW
03:08 21.8 °F 8.5 °F 30.51 in WNW 5.0 mph 5.8 mph 56 % 0.00 in 0.0 W/m2 FEW
03:13 21.8 °F 8.9 °F 30.51 in WNW 8.1 mph 9.2 mph 57 % 0.00 in 0.0 W/m2 FEW
03:18 21.7 °F 8.4 °F 30.52 in West 3.7 mph 9.2 mph 56 % 0.00 in 0.0 W/m2 FEW
03:24 21.6 °F 8.7 °F 30.51 in West 3.1 mph 4.0 mph 57 % 0.00 in 0.0 W/m2 FEW
03:28 21.5 °F 8.6 °F 30.52 in NW 4.3 mph 11.0 mph 57 % 0.00 in 0.0 W/m2 FEW
03:34 21.4 °F 8.5 °F 30.52 in WNW 3.3 mph 8.1 mph 57 % 0.00 in 0.0 W/m2 FEW
03:39 21.3 °F 8.4 °F 30.52 in WNW 3.8 mph 9.2 mph 57 % 0.00 in 0.0 W/m2 FEW
03:44 21.3 °F 8.4 °F 30.52 in WNW 5.1 mph 9.2 mph 57 % 0.00 in 0.0 W/m2 FEW
03:49 21.3 °F 8.0 °F 30.52 in WNW 5.5 mph 11.5 mph 56 % 0.00 in 0.0 W/m2 FEW
03:54 21.2 °F 7.9 °F 30.52 in WNW 2.1 mph 3.5 mph 56 % 0.00 in 0.0 W/m2 FEW
03:59 21.2 °F 7.9 °F 30.53 in WNW 4.0 mph 6.0 mph 56 % 0.00 in 0.0 W/m2 FEW
04:04 21.2 °F 7.9 °F 30.53 in WNW 2.5 mph 6.9 mph 56 % 0.00 in 0.0 W/m2 FEW
04:09 21.1 °F 7.8 °F 30.53 in NW 6.1 mph 10.4 mph 56 % 0.00 in 0.0 W/m2 FEW
04:14 21.0 °F 7.7 °F 30.53 in WNW 3.8 mph 6.9 mph 56 % 0.00 in 0.0 W/m2 FEW
04:19 21.0 °F 7.7 °F 30.53 in WNW 3.0 mph 3.5 mph 56 % 0.00 in 0.0 W/m2 FEW
04:24 21.0 °F 7.7 °F 30.53 in West 3.5 mph 6.9 mph 56 % 0.00 in 0.0 W/m2 FEW
04:29 21.0 °F 8.1 °F 30.53 in WNW 1.1 mph 1.1 mph 57 % 0.00 in 0.0 W/m2 FEW
04:34 20.8 °F 7.9 °F 30.53 in Calm     57 % 0.00 in 0.0 W/m2 FEW
04:39 20.6 °F 8.1 °F 30.53 in WNW 0.3 mph 2.0 mph 58 % 0.00 in 0.0 W/m2 FEW
04:44 20.6 °F 8.1 °F 30.53 in West 0.9 mph 3.5 mph 58 % 0.00 in 0.0 W/m2 FEW
04:49 20.6 °F 8.1 °F 30.53 in WNW 2.4 mph 3.5 mph 58 % 0.00 in 0.0 W/m2 FEW
04:54 20.5 °F 8.0 °F 30.53 in West 1.1 mph 3.5 mph 58 % 0.00 in 0.0 W/m2 FEW
04:59 20.5 °F 8.0 °F 30.54 in WNW 4.2 mph 8.1 mph 58 % 0.00 in 0.0 W/m2 FEW
05:04 20.5 °F 8.0 °F 30.54 in WNW 0.7 mph 3.5 mph 58 % 0.00 in 0.0 W/m2 FEW
05:09 20.6 °F 8.1 °F 30.54 in West 2.3 mph 4.0 mph 58 % 0.00 in 0.0 W/m2 FEW
05:14 20.6 °F 8.1 °F 30.54 in West 2.4 mph 4.6 mph 58 % 0.00 in 0.0 W/m2 FEW
05:19 20.5 °F 8.0 °F 30.54 in West 2.3 mph 3.5 mph 58 % 0.00 in 0.0 W/m2 FEW
05:24 20.4 °F 8.0 °F 30.54 in West 5.8 mph 10.4 mph 58 % 0.00 in 0.0 W/m2 FEW
05:29 20.4 °F 8.3 °F 30.54 in West 3.3 mph 5.8 mph 59 % 0.00 in 0.0 W/m2 FEW
05:34 20.3 °F 8.2 °F 30.54 in West 2.4 mph 3.5 mph 59 % 0.00 in 0.0 W/m2 FEW
05:39 20.2 °F 8.5 °F 30.55 in WSW 2.2 mph 6.0 mph 60 % 0.00 in 0.0 W/m2 FEW
05:44 20.2 °F 8.5 °F 30.55 in West 2.8 mph 3.5 mph 60 % 0.00 in 0.0 W/m2 FEW
05:49 20.2 °F 8.5 °F 30.54 in WSW 3.6 mph 6.0 mph 60 % 0.00 in 0.0 W/m2 FEW
05:54 20.2 °F 8.5 °F 30.54 in WSW 2.0 mph 5.8 mph 60 % 0.00 in 0.0 W/m2 FEW
05:59 20.1 °F 8.8 °F 30.54 in West 0.2 mph 2.3 mph 61 % 0.00 in 0.0 W/m2 FEW
06:04 19.8 °F 8.9 °F 30.55 in WSW 1.4 mph 4.0 mph 62 % 0.00 in 0.0 W/m2 FEW
06:05 19.8 °F 8.9 °F 30.55 in WSW 1.0 mph 3.5 mph 62 % 0.00 in 0.0 W/m2 FEW
06:10 19.6 °F 8.7 °F 30.55 in WSW 0.5 mph 2.3 mph 62 % 0.00 in 0.0 W/m2 FEW
06:15 19.4 °F 8.8 °F 30.55 in WSW 1.4 mph 2.3 mph 63 % 0.00 in 0.0 W/m2 FEW
06:20 19.3 °F 8.8 °F 30.55 in WSW 1.2 mph 3.5 mph 63 % 0.00 in 0.0 W/m2 FEW
06:25 19.2 °F 9.0 °F 30.55 in WSW 1.8 mph 2.3 mph 64 % 0.00 in 0.0 W/m2 FEW
06:30 19.1 °F 9.3 °F 30.55 in Calm   3.5 mph 65 % 0.00 in 0.0 W/m2 FEW
06:35 19.1 °F 9.6 °F 30.55 in WSW 0.6 mph 2.3 mph 66 % 0.00 in 7.0 W/m2 FEW
06:40 19.0 °F 9.8 °F 30.55 in WSW 2.8 mph 3.5 mph 67 % 0.00 in 9.0 W/m2 FEW
06:45 19.0 °F 9.8 °F 30.55 in WSW 1.8 mph 3.5 mph 67 % 0.00 in 11.0 W/m2 FEW
06:50 19.1 °F 10.3 °F 30.56 in West 0.7 mph 3.0 mph 68 % 0.00 in 14.0 W/m2 FEW
06:56 19.2 °F 10.4 °F 30.55 in WSW 0.1 mph 3.5 mph 68 % 0.00 in 16.0 W/m2 FEW
07:01 19.4 °F 10.6 °F 30.56 in WSW 0.6 mph 4.6 mph 68 % 0.00 in 18.0 W/m2 FEW
07:06 19.5 °F 10.6 °F 30.55 in WSW 2.3 mph 4.6 mph 68 % 0.00 in 21.0 W/m2 FEW
07:11 19.7 °F 10.8 °F 30.56 in WSW 0.9 mph 3.5 mph 68 % 0.00 in 25.0 W/m2 FEW
07:16 19.8 °F 10.9 °F 30.56 in WSW 4.1 mph 4.6 mph 68 % 0.00 in 28.0 W/m2 FEW
07:21 19.9 °F 11.0 °F 30.55 in West 3.5 mph 9.2 mph 68 % 0.00 in 47.0 W/m2 FEW
07:26 20.2 °F 11.3 °F 30.55 in WSW 4.0 mph 6.9 mph 68 % 0.00 in 44.0 W/m2 SCT
07:31 20.5 °F 11.3 °F 30.56 in WSW 4.0 mph 5.8 mph 67 % 0.00 in 40.0 W/m2 SCT
07:36 20.7 °F 11.5 °F 30.56 in West 1.9 mph 3.5 mph 67 % 0.00 in 56.0 W/m2 SCT
07:41 20.8 °F 11.2 °F 30.56 in West 2.9 mph 6.0 mph 66 % 0.00 in 53.0 W/m2 BKN
07:46 21.0 °F 11.4 °F 30.56 in SW 4.1 mph 9.2 mph 66 % 0.00 in 76.0 W/m2 SCT
07:51 21.2 °F 11.6 °F 30.56 in WSW 4.9 mph 8.1 mph 66 % 0.00 in 135.0 W/m2 FEW
07:56 21.4 °F 11.5 °F 30.56 in WSW 3.2 mph 7.0 mph 65 % 0.00 in 127.0 W/m2 FEW
07:57 21.4 °F 11.5 °F 30.56 in West 3.4 mph 8.1 mph 65 % 0.00 in 121.0 W/m2 CLR
08:02 21.6 °F 11.6 °F 30.56 in SW 4.2 mph 11.5 mph 65 % 0.00 in 111.0 W/m2 SCT
08:07 22.0 °F 12.0 °F 30.56 in West 3.9 mph 8.1 mph 65 % 0.00 in 135.0 W/m2 SCT
08:12 22.6 °F 12.6 °F 30.56 in West 4.9 mph 9.2 mph 65 % 0.00 in 185.0 W/m2 CLR
08:13 22.6 °F 12.6 °F 30.56 in WSW 7.0 mph 13.8 mph 65 % 0.00 in 137.0 W/m2 CLR
08:18 22.9 °F 12.5 °F 30.56 in SSW 5.3 mph 6.9 mph 64 % 0.00 in 206.0 W/m2 CLR
08:23 23.3 °F 12.6 °F 30.56 in West 5.7 mph 11.0 mph 63 % 0.00 in 244.0 W/m2 CLR
08:28 23.7 °F 12.2 °F 30.56 in NW 4.5 mph 11.5 mph 61 % 0.00 in 364.0 W/m2 CLR
08:33 24.3 °F 12.4 °F 30.56 in WNW 6.9 mph 12.7 mph 60 % 0.00 in 394.0 W/m2 CLR
08:38 24.9 °F 12.6 °F 30.56 in West 6.9 mph 11.5 mph 59 % 0.00 in 397.0 W/m2 CLR
08:43 25.3 °F 12.2 °F 30.56 in WNW 8.8 mph 13.8 mph 57 % 0.00 in 432.0 W/m2 CLR
08:48 25.6 °F 12.9 °F 30.56 in NW 7.8 mph 16.0 mph 58 % 0.00 in 457.0 W/m2 CLR
08:53 25.7 °F 12.2 °F 30.56 in NW 9.6 mph 12.7 mph 56 % 0.00 in 487.0 W/m2 CLR
08:58 25.8 °F 12.2 °F 30.56 in NW 9.7 mph 17.0 mph 56 % 0.00 in 476.0 W/m2 CLR
09:03 25.9 °F 12.3 °F 30.56 in NNW 11.6 mph 19.6 mph 56 % 0.00 in 515.0 W/m2 CLR
09:08 25.9 °F 11.5 °F 30.56 in WNW 10.6 mph 17.3 mph 54 % 0.00 in 564.0 W/m2 CLR
09:13 26.4 °F 12.4 °F 30.56 in NW 11.4 mph 15.0 mph 55 % 0.00 in 504.0 W/m2 CLR
09:18 26.9 °F 12.0 °F 30.56 in WNW 8.0 mph 12.7 mph 53 % 0.00 in 624.0 W/m2 CLR
09:23 27.4 °F 12.1 °F 30.56 in WNW 13.7 mph 21.9 mph 52 % 0.00 in 708.0 W/m2 CLR
09:28 27.7 °F 12.3 °F 30.56 in NW 7.2 mph 11.5 mph 52 % 0.00 in 218.0 W/m2 FEW
09:33 27.0 °F 10.8 °F 30.56 in NNW 15.9 mph 20.0 mph 50 % 0.00 in 220.0 W/m2 SCT
09:38 27.2 °F 11.0 °F 30.56 in NW 12.9 mph 21.9 mph 50 % 0.00 in 209.0 W/m2 FEW
09:43 27.8 °F 12.0 °F 30.56 in NW 8.1 mph 15.0 mph 51 % 0.00 in 209.0 W/m2 BKN
09:48 28.8 °F 12.0 °F 30.56 in NW 6.3 mph 11.0 mph 49 % 0.00 in 784.0 W/m2 BKN
09:53 28.7 °F 10.5 °F 30.56 in WNW 12.5 mph 20.7 mph 46 % 0.00 in 809.0 W/m2 CLR
09:58 28.8 °F 10.6 °F 30.56 in NW 8.9 mph 21.9 mph 46 % 0.00 in 376.0 W/m2 CLR
10:03 28.1 °F 9.5 °F 30.56 in WNW 12.1 mph 19.6 mph 45 % 0.00 in 244.0 W/m2 SCT
10:08 28.1 °F 9.9 °F 30.56 in North 12.9 mph 21.9 mph 46 % 0.00 in 455.0 W/m2 FEW
10:13 28.6 °F 9.9 °F 30.56 in WNW 14.9 mph 20.7 mph 45 % 0.00 in 385.0 W/m2 CLR
10:18 28.4 °F 9.2 °F 30.56 in WNW 16.2 mph 23.0 mph 44 % 0.00 in 823.0 W/m2 FEW
10:23 29.0 °F 10.3 °F 30.56 in NW 13.3 mph 26.5 mph 45 % 0.00 in 327.0 W/m2 CLR
10:28 28.4 °F 9.7 °F 30.57 in WNW 10.8 mph 25.0 mph 45 % 0.00 in 406.0 W/m2 SCT
10:33 28.0 °F 9.4 °F 30.57 in WNW 10.8 mph 16.1 mph 45 % 0.00 in 434.0 W/m2 SCT
10:38 28.6 °F 9.9 °F 30.57 in NW 10.4 mph 13.8 mph 45 % 0.00 in 251.0 W/m2 BKN
10:43 28.3 °F 10.1 °F 30.57 in NW 16.8 mph 19.6 mph 46 % 0.00 in 308.0 W/m2 SCT
10:48 28.0 °F 9.9 °F 30.57 in WNW 8.3 mph 16.1 mph 46 % 0.00 in 218.0 W/m2 BKN
10:53 28.0 °F 9.4 °F 30.57 in West 14.7 mph 19.6 mph 45 % 0.00 in 227.0 W/m2 BKN
10:58 28.0 °F 8.9 °F 30.57 in WNW 10.8 mph 19.6 mph 44 % 0.00 in 837.0 W/m2 FEW
11:03 28.1 °F 9.0 °F 30.56 in WSW 9.3 mph 19.6 mph 44 % 0.00 in 861.0 W/m2 BKN
11:08 29.1 °F 9.9 °F 30.56 in WNW 12.0 mph 19.6 mph 44 % 0.00 in 879.0 W/m2 CLR
11:13 29.9 °F 10.1 °F 30.56 in NW 14.9 mph 17.3 mph 43 % 0.00 in 868.0 W/m2 CLR
11:18 30.5 °F 9.6 °F 30.56 in West 13.2 mph 15.0 mph 41 % 0.00 in 881.0 W/m2 CLR
11:23 31.0 °F 10.0 °F 30.56 in NNW 13.4 mph 20.7 mph 41 % 0.00 in 889.0 W/m2 CLR
11:28 30.5 °F 9.6 °F 30.55 in WNW 10.3 mph 16.0 mph 41 % 0.00 in 928.0 W/m2 BKN
11:34 30.9 °F 9.9 °F 30.56 in West 6.6 mph 16.1 mph 41 % 0.00 in 882.0 W/m2 CLR
11:39 31.6 °F 9.4 °F 30.55 in NW 12.0 mph 15.0 mph 39 % 0.00 in 895.0 W/m2 CLR
11:43 31.7 °F 9.0 °F 30.56 in West 11.5 mph 18.0 mph 38 % 0.00 in 895.0 W/m2 CLR
11:49 30.8 °F 7.6 °F 30.55 in WNW 9.3 mph 16.1 mph 37 % 0.00 in 947.0 W/m2 CLR
11:54 30.9 °F 7.6 °F 30.55 in NW 16.4 mph 17.3 mph 37 % 0.00 in 253.0 W/m2 BKN
11:59 30.0 °F 7.4 °F 30.55 in WNW 16.5 mph 21.9 mph 38 % 0.00 in 176.0 W/m2 BKN
12:04 29.3 °F 6.8 °F 30.55 in NNW 7.6 mph 18.4 mph 38 % 0.00 in 302.0 W/m2 BKN
12:09 29.6 °F 7.1 °F 30.55 in WNW 13.6 mph 18.4 mph 38 % 0.00 in 221.0 W/m2 BKN
12:14 29.0 °F 7.7 °F 30.55 in NNW 14.4 mph 16.0 mph 40 % 0.00 in 221.0 W/m2 BKN
12:19 29.4 °F 8.0 °F 30.55 in WNW 10.6 mph 13.0 mph 40 % 0.00 in 311.0 W/m2 BKN
12:24 30.3 °F 9.4 °F 30.55 in NW 11.9 mph 16.0 mph 41 % 0.00 in 932.0 W/m2 BKN
12:29 31.3 °F 9.2 °F 30.54 in WNW 8.5 mph 17.3 mph 39 % 0.00 in 299.0 W/m2 FEW
12:34 31.2 °F 7.9 °F 30.54 in NW 9.4 mph 13.8 mph 37 % 0.00 in 176.0 W/m2 BKN
12:39 32.0 °F 10.4 °F 30.54 in NW 11.7 mph 20.7 mph 40 % 0.00 in 969.0 W/m2 CLR
12:44 33.0 °F 10.1 °F 30.54 in NW 18.0 mph 20.7 mph 38 % 0.00 in 942.0 W/m2 CLR
12:49 32.1 °F 7.5 °F 30.54 in WNW 9.6 mph 18.4 mph 35 % 0.00 in 197.0 W/m2 BKN
12:54 30.5 °F 6.7 °F 30.54 in NW 13.2 mph 17.3 mph 36 % 0.00 in 257.0 W/m2 BKN
12:59 30.8 °F 8.7 °F 30.53 in WNW 12.5 mph 19.6 mph 39 % 0.00 in 928.0 W/m2 FEW
13:04 31.2 °F 7.3 °F 30.53 in WNW 12.6 mph 19.6 mph 36 % 0.00 in 928.0 W/m2 CLR
13:09 31.4 °F 7.5 °F 30.53 in NW 13.3 mph 19.6 mph 36 % 0.00 in 260.0 W/m2 BKN
13:14 31.1 °F 7.8 °F 30.53 in WNW 11.7 mph 22.0 mph 37 % 0.00 in 334.0 W/m2 BKN
13:19 30.5 °F 7.3 °F 30.53 in NNW 13.9 mph 21.9 mph 37 % 0.00 in 251.0 W/m2 BKN
13:24 30.3 °F 7.7 °F 30.53 in NW 11.4 mph 20.0 mph 38 % 0.00 in 193.0 W/m2 BKN
13:29 29.9 °F 7.3 °F 30.53 in NW 10.9 mph 18.4 mph 38 % 0.00 in 246.0 W/m2 BKN
13:34 30.5 °F 8.4 °F 30.53 in West 14.3 mph 20.7 mph 39 % 0.00 in 766.0 W/m2 CLR
13:39 31.3 °F 8.6 °F 30.53 in NNW 10.7 mph 20.0 mph 38 % 0.00 in 142.0 W/m2 OVC
13:44 31.6 °F 8.3 °F 30.52 in NW 15.8 mph 19.6 mph 37 % 0.00 in 738.0 W/m2 CLR
13:49 32.5 °F 9.7 °F 30.52 in NNW 10.6 mph 16.0 mph 38 % 0.00 in 807.0 W/m2 CLR
13:54 33.5 °F 10.0 °F 30.52 in WNW 10.9 mph 16.1 mph 37 % 0.00 in 738.0 W/m2 CLR
13:59 33.4 °F 7.3 °F 30.52 in NW 16.7 mph 23.0 mph 33 % 0.00 in 703.0 W/m2 CLR
14:04 33.0 °F 8.3 °F 30.52 in West 15.7 mph 19.6 mph 35 % 0.00 in 745.0 W/m2 CLR
14:09 33.0 °F 8.3 °F 30.52 in NW 13.6 mph 19.6 mph 35 % 0.00 in 816.0 W/m2 CLR
14:14 33.8 °F 8.4 °F 30.53 in WNW 11.7 mph 20.0 mph 34 % 0.00 in 821.0 W/m2 CLR
14:19 33.7 °F 7.6 °F 30.53 in WNW 12.7 mph 23.0 mph 33 % 0.00 in 752.0 W/m2 CLR
14:24 33.4 °F 8.0 °F 30.53 in NW 18.6 mph 23.0 mph 34 % 0.00 in 708.0 W/m2 CLR
14:29 33.1 °F 8.4 °F 30.53 in NW 15.4 mph 19.6 mph 35 % 0.00 in 696.0 W/m2 CLR
14:34 33.0 °F 8.3 °F 30.53 in NW 16.6 mph 24.2 mph 35 % 0.00 in 652.0 W/m2 CLR
14:39 31.8 °F 7.8 °F 30.53 in WNW 12.9 mph 21.9 mph 36 % 0.00 in 165.0 W/m2 BKN
14:44 30.6 °F 8.0 °F 30.53 in NW 12.2 mph 18.4 mph 38 % 0.00 in 160.0 W/m2 BKN
14:49 30.5 °F 8.4 °F 30.53 in NNW 17.2 mph 20.7 mph 39 % 0.00 in 582.0 W/m2 CLR
14:54 30.5 °F 9.0 °F 30.53 in NW 14.0 mph 18.4 mph 40 % 0.00 in 171.0 W/m2 SCT
14:59 31.0 °F 9.5 °F 30.53 in NW 12.6 mph 18.4 mph 40 % 0.00 in 494.0 W/m2 CLR
15:04 30.5 °F 8.4 °F 30.53 in North 11.0 mph 19.6 mph 39 % 0.00 in 116.0 W/m2 OVC
15:09 30.2 °F 8.7 °F 30.53 in NW 11.7 mph 16.1 mph 40 % 0.00 in 457.0 W/m2 CLR
15:14 29.8 °F 8.4 °F 30.53 in NW 11.6 mph 21.9 mph 40 % 0.00 in 67.0 W/m2 OVC
15:19 29.5 °F 7.5 °F 30.53 in WNW 12.1 mph 21.9 mph 39 % 0.00 in 462.0 W/m2 BKN
15:24 30.1 °F 8.1 °F 30.53 in NNW 13.2 mph 16.1 mph 39 % 0.00 in 70.0 W/m2 OVC
15:29 29.6 °F 7.1 °F 30.53 in NW 9.8 mph 16.1 mph 38 % 0.00 in 454.0 W/m2 OVC
15:35 30.4 °F 7.2 °F 30.53 in NW 11.5 mph 26.5 mph 37 % 0.00 in 420.0 W/m2 CLR
15:39 31.0 °F 6.5 °F 30.53 in NNW 12.5 mph 16.1 mph 35 % 0.00 in 445.0 W/m2 CLR
15:44 31.5 °F 7.6 °F 30.53 in NW 11.3 mph 19.6 mph 36 % 0.00 in 459.0 W/m2 CLR
15:50 31.9 °F 7.3 °F 30.53 in NNW 14.6 mph 18.4 mph 35 % 0.00 in 415.0 W/m2 CLR
15:54 31.2 °F 7.3 °F 30.53 in North 10.9 mph 20.7 mph 36 % 0.00 in 397.0 W/m2 CLR
15:59 31.1 °F 7.8 °F 30.53 in North 12.4 mph 16.0 mph 37 % 0.00 in 371.0 W/m2 CLR
16:04 31.0 °F 7.7 °F 30.53 in NW 10.5 mph 16.1 mph 37 % 0.00 in 332.0 W/m2 CLR
16:09 31.0 °F 7.7 °F 30.53 in NW 10.6 mph 19.6 mph 37 % 0.00 in 315.0 W/m2 CLR
16:14 30.7 °F 6.9 °F 30.53 in NNW 15.9 mph 20.7 mph 36 % 0.00 in 285.0 W/m2 CLR
16:19 30.2 °F 6.4 °F 30.54 in NW 10.9 mph 18.4 mph 36 % 0.00 in 260.0 W/m2 CLR
16:24 30.2 °F 6.4 °F 30.54 in NNW 14.6 mph 21.9 mph 36 % 0.00 in 236.0 W/m2 CLR
16:29 30.1 °F 6.3 °F 30.54 in NNW 8.2 mph 13.8 mph 36 % 0.00 in 218.0 W/m2 CLR
16:34 30.0 °F 6.2 °F 30.54 in North 6.2 mph 16.1 mph 36 % 0.00 in 193.0 W/m2 CLR
16:39 29.9 °F 6.1 °F 30.55 in NNW 14.7 mph 18.4 mph 36 % 0.00 in 176.0 W/m2 CLR
16:44 29.7 °F 6.0 °F 30.55 in West 11.5 mph 18.0 mph 36 % 0.00 in 113.0 W/m2 CLR
16:49 29.5 °F 6.4 °F 30.56 in WNW 14.2 mph 17.3 mph 37 % 0.00 in 134.0 W/m2 CLR
16:54 29.2 °F 5.5 °F 30.56 in NNW 12.3 mph 19.6 mph 36 % 0.00 in 113.0 W/m2 CLR
16:59 29.0 °F 4.7 °F 30.57 in NNW 10.3 mph 13.8 mph 35 % 0.00 in 91.0 W/m2 FEW
17:04 28.7 °F 5.1 °F 30.56 in NW 14.0 mph 19.6 mph 36 % 0.00 in 77.0 W/m2 FEW
17:09 28.6 °F 4.4 °F 30.57 in NW 13.1 mph 16.1 mph 35 % 0.00 in 56.0 W/m2 SCT
17:14 28.3 °F 4.7 °F 30.56 in WNW 10.5 mph 18.4 mph 36 % 0.00 in 44.0 W/m2 SCT
17:19 28.1 °F 4.5 °F 30.57 in NNW 14.1 mph 19.6 mph 36 % 0.00 in 30.0 W/m2 BKN
17:24 27.9 °F 5.0 °F 30.57 in NW 7.2 mph 11.5 mph 37 % 0.00 in 23.0 W/m2 BKN
17:29 27.7 °F 5.4 °F 30.57 in NW 7.1 mph 10.4 mph 38 % 0.00 in 21.0 W/m2 BKN
17:34 27.4 °F 4.5 °F 30.57 in North 12.8 mph 15.0 mph 37 % 0.00 in 18.0 W/m2 BKN
17:39 27.2 °F 4.3 °F 30.57 in NW 12.3 mph 18.4 mph 37 % 0.00 in 14.0 W/m2 SCT
17:44 27.0 °F 4.7 °F 30.57 in NW 2.7 mph 6.9 mph 38 % 0.00 in 11.0 W/m2 SCT
17:49 26.7 °F 4.5 °F 30.58 in NW 12.5 mph 16.1 mph 38 % 0.00 in 9.0 W/m2 FEW
17:54 26.5 °F 4.3 °F 30.58 in North 9.9 mph 16.1 mph 38 % 0.00 in 5.0 W/m2 CLR
18:00 26.4 °F 4.2 °F 30.58 in NNW 10.2 mph 16.0 mph 38 % 0.00 in 0.0 W/m2 CLR
18:05 26.3 °F 4.1 °F 30.58 in NNE 12.5 mph 16.1 mph 38 % 0.00 in 0.0 W/m2 CLR
18:10 26.1 °F 3.3 °F 30.58 in NNW 8.8 mph 12.7 mph 37 % 0.00 in 0.0 W/m2 CLR
18:15 25.9 °F 3.7 °F 30.58 in North 10.0 mph 13.8 mph 38 % 0.00 in 0.0 W/m2 CLR
18:20 25.8 °F 3.6 °F 30.59 in NNW 5.7 mph 18.0 mph 38 % 0.00 in 0.0 W/m2 CLR
18:25 25.7 °F 3.6 °F 30.59 in NNW 5.0 mph 11.5 mph 38 % 0.00 in 0.0 W/m2 CLR
18:30 25.6 °F 3.5 °F 30.59 in NNW 4.1 mph 13.8 mph 38 % 0.00 in 0.0 W/m2 CLR
18:35 25.4 °F 3.3 °F 30.59 in NNW 5.5 mph 11.5 mph 38 % 0.00 in 0.0 W/m2 CLR
18:40 25.3 °F 3.2 °F 30.59 in NNW 2.5 mph 3.5 mph 38 % 0.00 in 0.0 W/m2 CLR
18:45 25.1 °F 3.0 °F 30.59 in NNW 3.9 mph 6.9 mph 38 % 0.00 in 0.0 W/m2 CLR
18:50 24.9 °F 3.9 °F 30.59 in NNW 4.5 mph 9.2 mph 40 % 0.00 in 0.0 W/m2 CLR
18:55 24.7 °F 4.3 °F 30.60 in North 4.8 mph 9.2 mph 41 % 0.00 in 0.0 W/m2 CLR
19:00 24.5 °F 4.6 °F 30.60 in NNE 4.2 mph 11.5 mph 42 % 0.00 in 0.0 W/m2 CLR
19:05 24.3 °F 5.0 °F 30.60 in North 5.1 mph 10.4 mph 43 % 0.00 in 0.0 W/m2 CLR
19:10 24.2 °F 4.9 °F 30.61 in North 5.7 mph 13.8 mph 43 % 0.00 in 0.0 W/m2 CLR
19:15 24.1 °F 4.8 °F 30.61 in North 3.1 mph 5.8 mph 43 % 0.00 in 0.0 W/m2 CLR
19:20 24.0 °F 5.2 °F 30.61 in NNE 7.3 mph 9.2 mph 44 % 0.00 in 0.0 W/m2 CLR
19:25 23.7 °F 4.9 °F 30.61 in North 3.3 mph 5.8 mph 44 % 0.00 in 0.0 W/m2 CLR
19:30 23.3 °F 5.1 °F 30.62 in North 4.7 mph 8.1 mph 45 % 0.00 in 0.0 W/m2 CLR
19:35 23.1 °F 4.9 °F 30.62 in North 4.6 mph 9.2 mph 45 % 0.00 in 0.0 W/m2 CLR
19:40 22.9 °F 4.7 °F 30.62 in North 0.1 mph 1.2 mph 45 % 0.00 in 0.0 W/m2 CLR
19:45 22.7 °F 5.0 °F 30.63 in North 5.1 mph 6.9 mph 46 % 0.00 in 0.0 W/m2 CLR
19:50 22.5 °F 4.8 °F 30.63 in NNE 6.4 mph 10.4 mph 46 % 0.00 in 0.0 W/m2 CLR
19:55 22.3 °F 4.6 °F 30.63 in North 7.0 mph 9.2 mph 46 % 0.00 in 0.0 W/m2 CLR
20:00 22.1 °F 4.0 °F 30.63 in NNE 9.6 mph 12.0 mph 45 % 0.00 in 0.0 W/m2 CLR
20:05 22.0 °F 3.9 °F 30.64 in NNE 7.3 mph 13.0 mph 45 % 0.00 in 0.0 W/m2 CLR
20:10 21.8 °F 4.2 °F 30.64 in North 2.0 mph 4.0 mph 46 % 0.00 in 0.0 W/m2 CLR
20:15 21.6 °F 3.5 °F 30.64 in North 2.8 mph 5.8 mph 45 % 0.00 in 0.0 W/m2 CLR
20:20 21.4 °F 3.8 °F 30.65 in NNE 4.7 mph 8.0 mph 46 % 0.00 in 0.0 W/m2 CLR
20:25 21.3 °F 3.7 °F 30.65 in NNE 5.1 mph 8.1 mph 46 % 0.00 in 0.0 W/m2 CLR
20:30 21.0 °F 3.4 °F 30.65 in North 3.1 mph 5.8 mph 46 % 0.00 in 0.0 W/m2 CLR
20:35 20.8 °F 3.2 °F 30.66 in NNE 7.3 mph 11.5 mph 46 % 0.00 in 0.0 W/m2 CLR
20:40 20.6 °F 3.1 °F 30.66 in NNE 5.1 mph 8.1 mph 46 % 0.00 in 0.0 W/m2 CLR
20:45 20.5 °F 3.0 °F 30.66 in NNE 5.4 mph 11.0 mph 46 % 0.00 in 0.0 W/m2 CLR
20:50 20.3 °F 2.3 °F 30.66 in North 3.1 mph 5.0 mph 45 % 0.00 in 0.0 W/m2 CLR
20:55 20.1 °F 2.6 °F 30.66 in NNW 2.9 mph 5.8 mph 46 % 0.00 in 0.0 W/m2 CLR
21:00 19.9 °F 2.4 °F 30.66 in NNE 2.4 mph 4.0 mph 46 % 0.00 in 0.0 W/m2 CLR
21:05 19.8 °F 2.3 °F 30.66 in NNW 4.1 mph 8.1 mph 46 % 0.00 in 0.0 W/m2 CLR
21:10 19.6 °F 2.6 °F 30.67 in North 4.6 mph 10.0 mph 47 % 0.00 in 0.0 W/m2 CLR
21:15 19.5 °F 2.0 °F 30.67 in NNE 4.4 mph 8.1 mph 46 % 0.00 in 0.0 W/m2 CLR
21:20 19.3 °F 2.3 °F 30.67 in NNW 3.2 mph 8.1 mph 47 % 0.00 in 0.0 W/m2 CLR
21:25 19.2 °F 2.2 °F 30.67 in NNW 4.8 mph 9.2 mph 47 % 0.00 in 0.0 W/m2 CLR
21:30 19.0 °F 1.6 °F 30.67 in NNW 3.2 mph 9.2 mph 46 % 0.00 in 0.0 W/m2 CLR
21:35 18.9 °F 2.0 °F 30.67 in NNW 8.1 mph 12.7 mph 47 % 0.00 in 0.0 W/m2 CLR
21:40 18.8 °F 1.9 °F 30.67 in North 3.1 mph 9.2 mph 47 % 0.00 in 0.0 W/m2 CLR
21:45 18.6 °F 2.1 °F 30.67 in North 1.9 mph 3.5 mph 48 % 0.00 in 0.0 W/m2 CLR
21:50 18.4 °F 2.0 °F 30.67 in North 4.1 mph 8.1 mph 48 % 0.00 in 0.0 W/m2 CLR
21:55 18.3 °F 1.9 °F 30.68 in North 5.4 mph 9.2 mph 48 % 0.00 in 0.0 W/m2 CLR
22:00 18.2 °F 2.2 °F 30.67 in North 3.4 mph 8.0 mph 49 % 0.00 in 0.0 W/m2 CLR
22:05 17.9 °F 1.9 °F 30.67 in North 4.0 mph 6.9 mph 49 % 0.00 in 0.0 W/m2 CLR
22:10 17.7 °F 1.7 °F 30.67 in NNE 6.1 mph 9.2 mph 49 % 0.00 in 0.0 W/m2 CLR
22:15 17.6 °F 2.1 °F 30.67 in NNW 4.1 mph 10.4 mph 50 % 0.00 in 0.0 W/m2 CLR
22:20 17.4 °F 1.9 °F 30.67 in NNW 5.4 mph 5.8 mph 50 % 0.00 in 0.0 W/m2 CLR
22:25 17.3 °F 2.2 °F 30.67 in NW 0.6 mph 3.5 mph 51 % 0.00 in 0.0 W/m2 CLR
22:30 17.2 °F 2.1 °F 30.67 in North 6.5 mph 11.5 mph 51 % 0.00 in 0.0 W/m2 CLR
22:36 17.1 °F 2.1 °F 30.67 in NNW 3.8 mph 10.4 mph 51 % 0.00 in 0.0 W/m2 CLR
22:40 17.0 °F 2.0 °F 30.67 in NNW 4.2 mph 10.4 mph 51 % 0.00 in 0.0 W/m2 CLR
22:45 17.0 °F 2.0 °F 30.67 in NNW 4.0 mph 9.2 mph 51 % 0.00 in 0.0 W/m2 CLR
22:51 16.8 °F 1.8 °F 30.67 in NNW 2.8 mph 5.8 mph 51 % 0.00 in 0.0 W/m2 CLR
22:55 16.6 °F 2.0 °F 30.68 in NNW 4.4 mph 5.8 mph 52 % 0.00 in 0.0 W/m2 CLR
23:00 16.6 °F 2.0 °F 30.68 in North 2.8 mph 5.8 mph 52 % 0.00 in 0.0 W/m2 CLR
23:05 16.6 °F 1.6 °F 30.68 in North 2.6 mph 9.2 mph 51 % 0.00 in 0.0 W/m2 CLR
23:10 16.4 °F 1.4 °F 30.68 in North 2.0 mph 8.0 mph 51 % 0.00 in 0.0 W/m2 CLR
23:15 16.4 °F 1.8 °F 30.69 in North 2.3 mph 4.6 mph 52 % 0.00 in 0.0 W/m2 CLR
23:20 16.3 °F 1.7 °F 30.69 in NW 2.3 mph 8.1 mph 52 % 0.00 in 0.0 W/m2 CLR
23:25 16.2 °F 1.6 °F 30.69 in NNW 2.2 mph 4.6 mph 52 % 0.00 in 0.0 W/m2 CLR
23:30 16.0 °F 1.4 °F 30.69 in NE 2.7 mph 9.2 mph 52 % 0.00 in 0.0 W/m2 CLR
23:35 15.9 °F 1.4 °F 30.69 in NNW 9.3 mph 12.7 mph 52 % 0.00 in 0.0 W/m2 CLR
23:40 15.8 °F 1.3 °F 30.69 in North 5.7 mph 10.4 mph 52 % 0.00 in 0.0 W/m2 CLR
23:45 15.6 °F 1.5 °F 30.69 in NW 5.6 mph 10.4 mph 53 % 0.00 in 0.0 W/m2 CLR
23:50 15.5 °F 1.8 °F 30.69 in North 0.2 mph 8.0 mph 54 % 0.00 in 0.0 W/m2 CLR
23:55 15.4 °F 1.7 °F 30.69 in NNW 4.9 mph 8.1 mph 54 % 0.00 in 0.0 W/m2 CLR
Air Products Campus Weather
Compliments of Weather Underground - 3.5 mb